Time;durP1;ratioP1;P1;durP2;ratioP2;P2;SDS_P1;SDS_P2;PMS_P1;PMS_P2;Temp;Humidity;BMP_temperature;BMP_pressure;BME280_temperature;BME280_humidity;BME280_pressure;Samples;Min_cycle;Max_cycle;Signal;HPM_P1;HPM_P2
2023/08/19 00:03:39;;;;;;;9.82;7.60;;;;;;;-140.66;100.00;55571.53;5136630;27;20117;-71
2023/08/19 00:07:33;;;;;;;11.05;8.18;;;;;;;-140.66;100.00;55571.53;5137398;27;20033;-72
2023/08/19 00:11:17;;;;;;;14.10;8.10;;;;;;;-140.66;100.00;55571.53;5137113;27;20094;-72
2023/08/19 00:15:02;;;;;;;9.32;8.13;;;;;;;-140.66;100.00;55571.53;5137381;27;20038;-72
2023/08/19 00:18:46;;;;;;;10.25;7.95;;;;;;;-140.66;100.00;55571.53;5137667;27;20046;-72
2023/08/19 00:22:31;;;;;;;10.63;8.68;;;;;;;-140.66;100.00;55571.53;5137670;27;20035;-72
2023/08/19 00:26:15;;;;;;;12.00;9.05;;;;;;;-140.66;100.00;55571.53;5136671;27;20031;-70
2023/08/19 00:29:59;;;;;;;11.75;8.98;;;;;;;-140.66;100.00;55571.53;5136453;27;20042;-71
2023/08/19 00:33:44;;;;;;;17.10;9.20;;;;;;;-140.66;100.00;55571.53;5136078;27;20119;-71
2023/08/19 00:37:30;;;;;;;10.00;8.85;;;;;;;-140.66;100.00;55571.53;5136653;27;20459;-71
2023/08/19 00:41:15;;;;;;;11.43;8.98;;;;;;;-140.66;100.00;55571.53;5136857;27;20087;-70
2023/08/19 00:44:59;;;;;;;13.65;9.60;;;;;;;-140.66;100.00;55571.53;5136405;27;20030;-71
2023/08/19 00:48:44;;;;;;;13.77;9.27;;;;;;;-140.66;100.00;55571.53;5137315;27;20473;-71
2023/08/19 00:52:28;;;;;;;12.20;9.38;;;;;;;-140.66;100.00;55571.53;5136436;27;20451;-71
2023/08/19 00:56:13;;;;;;;12.65;9.25;;;;;;;-140.66;100.00;55571.53;5136901;27;20065;-71
2023/08/19 00:59:57;;;;;;;14.15;9.45;;;;;;;-140.66;100.00;55571.53;5135253;27;20027;-71
2023/08/19 01:03:42;;;;;;;11.35;9.07;;;;;;;-140.66;100.00;55571.53;5135843;27;20035;-71
2023/08/19 01:07:53;;;;;;;13.52;9.23;;;;;;;-140.66;100.00;55571.53;5134448;27;20139;-71
2023/08/19 01:11:47;;;;;;;11.70;8.93;;;;;;;-140.66;100.00;55571.53;5135951;27;20051;-71
2023/08/19 01:15:36;;;;;;;11.80;9.25;;;;;;;-140.66;100.00;55571.53;5135619;27;20042;-71
2023/08/19 01:19:23;;;;;;;10.25;9.10;;;;;;;-140.66;100.00;55571.53;5136506;27;20093;-75
2023/08/19 01:23:12;;;;;;;10.77;8.45;;;;;;;-140.66;100.00;55571.53;5152258;27;20055;-71
2023/08/19 01:26:56;;;;;;;12.75;9.02;;;;;;;-140.66;100.00;55571.53;5136625;27;20102;-71
2023/08/19 01:30:41;;;;;;;10.07;8.30;;;;;;;-140.66;100.00;55571.53;5136365;27;20114;-71
2023/08/19 01:34:25;;;;;;;17.60;8.88;;;;;;;-140.66;100.00;55571.53;5136447;27;20054;-71
2023/08/19 01:38:26;;;;;;;11.85;9.10;;;;;;;-140.66;100.00;55571.53;5135605;27;20070;-71
2023/08/19 01:42:12;;;;;;;11.07;9.05;;;;;;;-140.66;100.00;55571.53;5148134;27;20326;-70
2023/08/19 01:45:57;;;;;;;14.55;9.07;;;;;;;-140.66;100.00;55571.53;5135502;27;20023;-71
2023/08/19 01:49:42;;;;;;;11.73;8.00;;;;;;;-140.66;100.00;55571.53;5135686;27;20066;-71
2023/08/19 01:53:26;;;;;;;13.48;8.45;;;;;;;-140.66;100.00;55571.53;5135154;27;20099;-70
2023/08/19 01:57:11;;;;;;;12.77;8.63;;;;;;;-140.66;100.00;55571.53;5134184;27;20041;-70
2023/08/19 02:00:55;;;;;;;9.20;7.97;;;;;;;-140.66;100.00;55571.53;5135471;27;20087;-70
2023/08/19 02:04:39;;;;;;;9.25;8.25;;;;;;;-140.66;100.00;55571.53;5134222;27;20030;-71
2023/08/19 02:08:23;;;;;;;9.80;8.38;;;;;;;-140.66;100.00;55571.53;5134478;27;20114;-70
2023/08/19 02:12:08;;;;;;;11.32;8.45;;;;;;;-140.66;100.00;55571.53;5134786;27;20019;-71
2023/08/19 02:15:52;;;;;;;10.40;8.43;;;;;;;-140.66;100.00;55571.53;5133933;27;20054;-71
2023/08/19 02:19:36;;;;;;;12.02;8.75;;;;;;;-140.66;100.00;55571.53;5134235;27;20369;-71
2023/08/19 02:23:20;;;;;;;11.45;8.30;;;;;;;-140.66;100.00;55571.53;5134415;28;20456;-70
2023/08/19 02:27:04;;;;;;;12.68;9.00;;;;;;;-140.66;100.00;55571.53;5134353;28;20034;-71
2023/08/19 02:30:49;;;;;;;14.70;8.30;;;;;;;-140.66;100.00;55571.53;5134250;28;20448;-71
2023/08/19 02:34:33;;;;;;;13.68;8.30;;;;;;;-140.66;100.00;55571.53;5134031;28;20023;-71
2023/08/19 02:38:17;;;;;;;10.88;7.97;;;;;;;-140.66;100.00;55571.53;5135023;28;20027;-71
2023/08/19 02:42:01;;;;;;;10.02;7.80;;;;;;;-140.66;100.00;55571.53;5134544;28;20027;-71
2023/08/19 02:45:46;;;;;;;12.30;8.18;;;;;;;-140.66;100.00;55571.53;5134390;28;20020;-71
2023/08/19 02:49:30;;;;;;;11.80;8.00;;;;;;;-140.66;100.00;55571.53;5134550;28;20111;-71
2023/08/19 02:53:15;;;;;;;12.32;8.07;;;;;;;-140.66;100.00;55571.53;5135006;28;20088;-72
2023/08/19 02:56:59;;;;;;;10.57;7.15;;;;;;;-140.66;100.00;55571.53;5133872;28;20016;-71
2023/08/19 03:00:47;;;;;;;16.70;9.20;;;;;;;-140.66;100.00;55571.53;5134308;28;20032;-71
2023/08/19 03:04:31;;;;;;;13.32;8.18;;;;;;;-140.66;100.00;55571.53;5134132;28;20027;-71
2023/08/19 03:08:16;;;;;;;11.27;8.20;;;;;;;-140.66;100.00;55571.53;5134952;28;20368;-71
2023/08/19 03:12:01;;;;;;;13.20;8.98;;;;;;;-140.66;100.00;55571.53;5134874;28;20088;-71
2023/08/19 03:15:45;;;;;;;11.57;8.27;;;;;;;-140.66;100.00;55571.53;5134178;28;20035;-71
2023/08/19 03:19:30;;;;;;;9.60;8.40;;;;;;;-140.66;100.00;55571.53;5134750;28;20019;-70
2023/08/19 03:23:14;;;;;;;11.93;8.65;;;;;;;-140.66;100.00;55571.53;5134678;28;20068;-71
2023/08/19 03:26:58;;;;;;;11.80;8.10;;;;;;;-140.66;100.00;55571.53;5134736;28;20041;-71
2023/08/19 03:30:42;;;;;;;13.95;8.20;;;;;;;-140.66;100.00;55571.53;5136479;27;20106;-71
2023/08/19 03:34:27;;;;;;;12.52;7.65;;;;;;;-140.66;100.00;55571.53;5136855;27;20031;-71
2023/08/19 03:38:12;;;;;;;13.90;8.38;;;;;;;-140.66;100.00;55571.53;5137601;27;20033;-72
2023/08/19 03:41:56;;;;;;;12.80;8.40;;;;;;;-140.66;100.00;55571.53;5137742;27;20058;-72
2023/08/19 03:45:41;;;;;;;10.60;8.30;;;;;;;-140.66;100.00;55571.53;5136981;27;20083;-71
2023/08/19 03:49:25;;;;;;;16.45;8.85;;;;;;;-140.66;100.00;55571.53;5137937;27;20067;-71
2023/08/19 03:53:09;;;;;;;12.90;8.55;;;;;;;-140.66;100.00;55571.53;5137485;27;20027;-70
2023/08/19 03:56:53;;;;;;;13.65;8.77;;;;;;;-140.66;100.00;55571.53;5138837;27;20023;-71
2023/08/19 04:00:37;;;;;;;11.15;8.48;;;;;;;-140.66;100.00;55571.53;5136205;27;20019;-70
2023/08/19 04:04:22;;;;;;;9.85;8.20;;;;;;;-140.66;100.00;55571.53;5136484;27;20403;-71
2023/08/19 04:08:06;;;;;;;12.18;8.40;;;;;;;-140.66;100.00;55571.53;5138041;27;20062;-71
2023/08/19 04:11:51;;;;;;;10.45;7.68;;;;;;;-140.66;100.00;55571.53;5136828;27;20031;-71
2023/08/19 04:15:35;;;;;;;11.75;8.45;;;;;;;-140.66;100.00;55571.53;5136833;27;20027;-71
2023/08/19 04:19:19;;;;;;;11.38;8.43;;;;;;;-140.66;100.00;55571.53;5137295;27;20131;-72
2023/08/19 04:23:04;;;;;;;14.02;8.43;;;;;;;-140.66;100.00;55571.53;5136401;27;20024;-71
2023/08/19 04:26:49;;;;;;;12.90;7.90;;;;;;;-140.66;100.00;55571.53;5136877;27;20058;-71
2023/08/19 04:30:33;;;;;;;11.45;8.50;;;;;;;-140.66;100.00;55571.53;5136137;27;20037;-71
2023/08/19 04:34:17;;;;;;;17.10;8.02;;;;;;;-140.66;100.00;55571.53;5136538;27;20034;-71
2023/08/19 04:38:03;;;;;;;15.20;8.57;;;;;;;-140.66;100.00;55571.53;5137091;27;20026;-71
2023/08/19 04:41:47;;;;;;;11.02;8.07;;;;;;;-140.66;100.00;55571.53;5136325;27;20466;-71
2023/08/19 04:45:32;;;;;;;14.10;8.32;;;;;;;-140.66;100.00;55571.53;5136226;27;20027;-71
2023/08/19 04:49:16;;;;;;;14.75;8.40;;;;;;;-140.66;100.00;55571.53;5135953;27;20397;-71
2023/08/19 04:53:00;;;;;;;14.52;7.88;;;;;;;-140.66;100.00;55571.53;5136864;27;20019;-71
2023/08/19 04:56:44;;;;;;;16.60;7.82;;;;;;;-140.66;100.00;55571.53;5135803;27;20031;-71
2023/08/19 05:00:28;;;;;;;11.18;6.97;;;;;;;-140.66;100.00;55571.53;5135509;27;20065;-71
2023/08/19 05:04:13;;;;;;;10.73;7.57;;;;;;;-140.66;100.00;55571.53;5136084;27;20027;-71
2023/08/19 05:07:57;;;;;;;8.40;6.80;;;;;;;-140.66;100.00;55571.53;5135547;27;20041;-71
2023/08/19 05:11:41;;;;;;;10.60;6.95;;;;;;;-140.66;100.00;55571.53;5136077;27;20019;-70
2023/08/19 05:15:26;;;;;;;9.45;6.65;;;;;;;-140.66;100.00;55571.53;5135772;27;20023;-71
2023/08/19 05:19:19;;;;;;;10.13;7.28;;;;;;;-140.66;100.00;55571.53;5135275;27;20441;-71
2023/08/19 05:23:04;;;;;;;14.25;7.32;;;;;;;-140.66;100.00;55571.53;5135796;27;20080;-73
2023/08/19 05:26:48;;;;;;;11.60;6.93;;;;;;;-140.66;100.00;55571.53;5135434;27;20110;-72
2023/08/19 05:30:32;;;;;;;29.88;7.60;;;;;;;-140.66;100.00;55571.53;5135343;27;20023;-72
2023/08/19 05:34:17;;;;;;;11.48;6.80;;;;;;;-140.66;100.00;55571.53;5134675;27;20015;-71
2023/08/19 05:38:01;;;;;;;10.95;6.75;;;;;;;-140.66;100.00;55571.53;5135603;27;20034;-71
2023/08/19 05:41:46;;;;;;;10.18;6.45;;;;;;;-140.66;100.00;55571.53;5134830;27;20026;-72
2023/08/19 05:45:32;;;;;;;10.93;6.72;;;;;;;-140.66;100.00;55571.53;5134646;27;20410;-72
2023/08/19 05:49:16;;;;;;;11.45;6.47;;;;;;;-140.66;100.00;55571.53;5135361;27;20502;-71
2023/08/19 05:53:00;;;;;;;9.85;7.13;;;;;;;-140.66;100.00;55571.53;5135768;27;20031;-72
2023/08/19 05:56:45;;;;;;;10.32;6.93;;;;;;;-140.66;100.00;55571.53;5135564;27;20136;-72
2023/08/19 06:00:29;;;;;;;15.05;6.80;;;;;;;-140.66;100.00;55571.53;5135300;27;20171;-73
2023/08/19 06:04:15;;;;;;;13.23;6.90;;;;;;;-140.66;100.00;55571.53;5134938;27;20456;-73
2023/08/19 06:07:59;;;;;;;12.63;7.22;;;;;;;-140.66;100.00;55571.53;5134624;27;20031;-72
2023/08/19 06:11:48;;;;;;;16.27;7.68;;;;;;;-140.66;100.00;55571.53;5134784;27;20019;-71
2023/08/19 06:15:32;;;;;;;15.95;7.30;;;;;;;-140.66;100.00;55571.53;5134199;27;20031;-71
2023/08/19 06:19:16;;;;;;;14.77;7.78;;;;;;;-140.66;100.00;55571.53;5135034;28;20059;-72
2023/08/19 06:23:01;;;;;;;15.80;7.18;;;;;;;-140.66;100.00;55571.53;5135479;28;20126;-73
2023/08/19 06:26:46;;;;;;;16.95;7.70;;;;;;;-140.66;100.00;55571.53;5136325;28;20023;-71
2023/08/19 06:30:30;;;;;;;19.13;8.02;;;;;;;-140.66;100.00;55571.53;5134971;28;20027;-71
2023/08/19 06:34:15;;;;;;;18.95;9.10;;;;;;;-140.66;100.00;55571.53;5135038;28;20418;-71
2023/08/19 06:38:04;;;;;;;17.92;8.10;;;;;;;-140.66;100.00;55571.53;5135292;28;20110;-71
2023/08/19 06:41:55;;;;;;;17.13;7.90;;;;;;;-140.66;100.00;55571.53;5135205;28;20027;-71
2023/08/19 06:45:41;;;;;;;20.83;8.82;;;;;;;-140.66;100.00;55571.53;5134784;28;20031;-72
2023/08/19 06:49:26;;;;;;;14.77;7.85;;;;;;;-140.66;100.00;55571.53;5134910;28;20046;-70
2023/08/19 06:53:10;;;;;;;13.80;7.05;;;;;;;-140.66;100.00;55571.53;5134881;28;20023;-70
2023/08/19 06:57:06;;;;;;;14.98;6.97;;;;;;;-140.66;100.00;55571.53;5134256;28;20172;-71
2023/08/19 07:00:56;;;;;;;21.60;8.18;;;;;;;-140.66;100.00;55571.53;5134658;28;20083;-70
2023/08/19 07:04:44;;;;;;;18.27;7.53;;;;;;;-140.66;100.00;55571.53;5135843;27;20102;-72
2023/08/19 07:08:30;;;;;;;13.30;7.50;;;;;;;-140.66;100.00;55571.53;5136777;27;20440;-70
2023/08/19 07:12:17;;;;;;;14.15;7.32;;;;;;;-140.66;100.00;55571.53;5137695;27;20091;-70
2023/08/19 07:16:12;;;;;;;15.90;7.22;;;;;;;-140.66;100.00;55571.53;5138603;27;20027;-70
2023/08/19 07:19:58;;;;;;;17.50;7.88;;;;;;;-140.66;100.00;55571.53;5138446;27;20023;-70
2023/08/19 07:23:47;;;;;;;14.43;7.13;;;;;;;-140.66;100.00;55571.53;5138741;27;20357;-70
2023/08/19 07:27:34;;;;;;;12.38;7.47;;;;;;;-140.66;100.00;55571.53;5138160;27;20026;-72
2023/08/19 07:31:22;;;;;;;8.85;7.18;;;;;;;-140.66;100.00;55571.53;5138524;27;20042;-72
2023/08/19 07:35:07;;;;;;;11.60;7.13;;;;;;;-140.66;100.00;55571.53;5142584;27;20117;-70
2023/08/19 07:38:52;;;;;;;9.18;6.63;;;;;;;-140.66;100.00;55571.53;5144001;27;20020;-72
2023/08/19 07:42:37;;;;;;;12.57;6.80;;;;;;;-140.66;100.00;55571.53;5145808;27;20023;-71
2023/08/19 07:46:21;;;;;;;10.98;6.88;;;;;;;-140.66;100.00;55571.53;5145246;27;20027;-70
2023/08/19 07:50:05;;;;;;;11.27;6.53;;;;;;;-140.66;100.00;55571.53;5144687;27;20062;-71
2023/08/19 07:53:50;;;;;;;10.07;7.00;;;;;;;-140.66;100.00;55571.53;5144132;27;20025;-70
2023/08/19 07:57:34;;;;;;;11.10;6.82;;;;;;;-140.66;100.00;55571.53;5143238;27;20135;-71
2023/08/19 08:01:19;;;;;;;17.48;7.38;;;;;;;-140.66;100.00;55571.53;5142605;27;20088;-73
2023/08/19 08:05:04;;;;;;;14.25;7.30;;;;;;;-140.66;100.00;55571.53;5142596;27;20118;-73
2023/08/19 08:08:48;;;;;;;11.32;7.13;;;;;;;-140.66;100.00;55571.53;5143597;27;20054;-72
2023/08/19 08:12:32;;;;;;;10.32;6.57;;;;;;;-140.66;100.00;55571.53;5143199;27;20092;-71
2023/08/19 08:16:16;;;;;;;8.15;6.30;;;;;;;-140.66;100.00;55571.53;5142572;27;20093;-72
2023/08/19 08:20:01;;;;;;;10.27;6.95;;;;;;;-140.66;100.00;55571.53;5144476;27;20027;-71
2023/08/19 08:23:45;;;;;;;10.15;6.70;;;;;;;-140.66;100.00;55571.53;5145737;27;20513;-72
2023/08/19 08:27:29;;;;;;;10.07;6.80;;;;;;;-140.66;100.00;55571.53;5142645;27;20128;-72
2023/08/19 08:31:20;;;;;;;15.68;6.75;;;;;;;-140.66;100.00;55571.53;5139833;27;20072;-75
2023/08/19 08:35:07;;;;;;;11.55;7.03;;;;;;;-140.66;100.00;55571.53;5137426;27;20019;-72
2023/08/19 08:39:00;;;;;;;11.77;7.47;;;;;;;-140.66;100.00;55571.53;5136952;27;20103;-73
2023/08/19 08:42:52;;;;;;;11.32;6.65;;;;;;;-140.66;100.00;55571.53;5137787;27;20031;-74
2023/08/19 08:46:55;;;;;;;8.75;6.60;;;;;;;-140.66;100.00;55571.53;5137126;27;20055;-72
2023/08/19 08:50:41;;;;;;;11.40;7.43;;;;;;;-140.66;100.00;55571.53;5136762;27;20364;-72
2023/08/19 08:54:28;;;;;;;8.77;6.40;;;;;;;-140.66;100.00;55571.53;5136103;27;20326;-72
2023/08/19 08:58:12;;;;;;;15.32;6.72;;;;;;;-140.66;100.00;55571.53;5135330;27;20038;-72
2023/08/19 09:02:00;;;;;;;8.93;6.22;;;;;;;-140.66;100.00;55571.53;5135871;27;20082;-73
2023/08/19 09:05:48;;;;;;;8.38;6.15;;;;;;;-140.66;100.00;55571.53;5134966;27;20035;-73
2023/08/19 09:09:40;;;;;;;7.53;6.13;;;;;;;-140.66;100.00;55571.53;5136310;27;20031;-73
2023/08/19 09:13:25;;;;;;;10.88;6.45;;;;;;;-140.66;100.00;55571.53;5135868;27;20447;-72
2023/08/19 09:17:13;;;;;;;9.45;6.28;;;;;;;-140.66;100.00;55571.53;5134839;27;20091;-72
2023/08/19 09:20:58;;;;;;;11.80;6.25;;;;;;;-140.66;100.00;55571.53;5135589;27;20031;-72
2023/08/19 09:24:43;;;;;;;7.85;5.70;;;;;;;-140.66;100.00;55571.53;5134929;27;20457;-72
2023/08/19 09:28:31;;;;;;;7.95;5.78;;;;;;;-140.66;100.00;55571.53;5134770;27;20081;-73
2023/08/19 09:32:25;;;;;;;9.32;5.93;;;;;;;-140.66;100.00;55571.53;5134805;27;20365;-72
2023/08/19 09:36:10;;;;;;;11.55;8.82;;;;;;;-140.66;100.00;55571.53;5135168;27;20437;-71
2023/08/19 09:39:55;;;;;;;6.40;5.07;;;;;;;-140.66;100.00;55571.53;5145174;27;20027;-72
2023/08/19 09:43:46;;;;;;;8.48;5.75;;;;;;;-140.66;100.00;55571.53;5148394;27;20035;-72
2023/08/19 09:47:44;;;;;;;9.10;5.50;;;;;;;-140.66;100.00;55571.53;5142365;27;20408;-70
2023/08/19 09:51:29;;;;;;;10.20;5.72;;;;;;;-140.66;100.00;55571.53;5137338;27;20092;-70
2023/08/19 09:55:20;;;;;;;10.38;5.28;;;;;;;-140.66;100.00;55571.53;5136015;27;20042;-71
2023/08/19 09:59:06;;;;;;;9.00;5.22;;;;;;;-140.66;100.00;55571.53;5136019;27;20098;-70
2023/08/19 10:02:54;;;;;;;6.57;5.28;;;;;;;-140.66;100.00;55571.53;5135504;27;20080;-71
2023/08/19 10:06:49;;;;;;;8.13;5.78;;;;;;;-140.66;100.00;55571.53;5136034;27;20030;-71
2023/08/19 10:10:44;;;;;;;12.20;4.95;;;;;;;-140.66;100.00;55571.53;5135093;27;20029;-71
2023/08/19 10:14:32;;;;;;;7.80;4.82;;;;;;;-140.66;100.00;55571.53;5135963;27;20011;-71
2023/08/19 10:18:19;;;;;;;8.63;5.28;;;;;;;-140.66;100.00;55571.53;5142096;28;20031;-71
2023/08/19 10:22:07;;;;;;;8.25;5.07;;;;;;;-140.66;100.00;55571.53;5136067;28;20034;-72
2023/08/19 10:25:53;;;;;;;7.65;4.80;;;;;;;-140.66;100.00;55571.53;5134466;28;20023;-72
2023/08/19 10:29:37;;;;;;;10.25;5.30;;;;;;;-140.66;100.00;55571.53;5133351;28;20428;-71
2023/08/19 10:33:32;;;;;;;11.13;5.57;;;;;;;-140.66;100.00;55571.53;5134940;28;20027;-72
2023/08/19 10:37:17;;;;;;;6.38;4.95;;;;;;;-140.66;100.00;55571.53;5133911;28;20460;-71
2023/08/19 10:41:20;;;;;;;13.32;5.40;;;;;;;-140.66;100.00;55571.53;5138485;27;20456;-71
2023/08/19 10:45:15;;;;;;;6.30;5.30;;;;;;;-140.66;100.00;55571.53;5138647;27;20110;-71
2023/08/19 10:49:03;;;;;;;8.07;5.03;;;;;;;-140.66;100.00;55571.53;5138382;27;20050;-70
2023/08/19 10:52:56;;;;;;;7.88;4.80;;;;;;;-140.66;100.00;55571.53;5138377;27;20046;-72
2023/08/19 10:57:11;;;;;;;15.57;5.18;;;;;;;-140.66;100.00;55571.53;5138030;27;20019;-71
2023/08/19 11:00:58;;;;;;;7.07;4.80;;;;;;;-140.66;100.00;55571.53;5139028;27;20035;-72
2023/08/19 11:04:46;;;;;;;7.38;4.80;;;;;;;-140.66;100.00;55571.53;5138640;27;20030;-72
2023/08/19 11:08:30;;;;;;;7.43;4.70;;;;;;;-140.66;100.00;55571.53;5137767;27;20023;-71
2023/08/19 11:12:17;;;;;;;8.32;4.65;;;;;;;-140.66;100.00;55571.53;5138200;27;20023;-71
2023/08/19 11:16:04;;;;;;;5.22;4.70;;;;;;;-140.66;100.00;55571.53;5137756;27;20139;-71
2023/08/19 11:19:48;;;;;;;12.70;5.03;;;;;;;-140.66;100.00;55571.53;5137093;27;20030;-71
2023/08/19 11:23:42;;;;;;;9.73;5.53;;;;;;;-140.66;100.00;55571.53;5137858;27;20023;-71
2023/08/19 11:27:26;;;;;;;7.45;4.80;;;;;;;-140.66;100.00;55571.53;5137369;27;20031;-71
2023/08/19 11:31:11;;;;;;;20.75;5.63;;;;;;;-140.66;100.00;55571.53;5137666;27;20050;-71
2023/08/19 11:34:56;;;;;;;11.00;5.50;;;;;;;-140.66;100.00;55571.53;5137605;27;20019;-70
2023/08/19 11:38:40;;;;;;;9.35;5.45;;;;;;;-140.66;100.00;55571.53;5137010;27;20027;-71
2023/08/19 11:42:27;;;;;;;7.55;5.07;;;;;;;-140.66;100.00;55571.53;5138688;27;20365;-71
2023/08/19 11:46:11;;;;;;;12.20;6.25;;;;;;;-140.66;100.00;55571.53;5137682;27;20026;-71
2023/08/19 11:50:10;;;;;;;8.07;5.22;;;;;;;-140.66;100.00;55571.53;5137044;27;20380;-71
2023/08/19 11:54:00;;;;;;;10.57;5.00;;;;;;;-140.66;100.00;55571.53;5137744;27;20035;-70
2023/08/19 11:57:44;;;;;;;10.13;5.65;;;;;;;-140.66;100.00;55571.53;5135958;27;20027;-71
2023/08/19 12:01:28;;;;;;;9.25;5.32;;;;;;;-140.66;100.00;55571.53;5137087;27;20027;-70
2023/08/19 12:05:23;;;;;;;11.68;5.28;;;;;;;-140.66;100.00;55571.53;5137345;27;20023;-71
2023/08/19 12:09:30;;;;;;;8.07;5.65;;;;;;;-140.66;100.00;55571.53;5136736;27;20031;-71
2023/08/19 12:13:19;;;;;;;9.90;5.50;;;;;;;-140.66;100.00;55571.53;5136163;27;20027;-71
2023/08/19 12:17:08;;;;;;;7.22;5.18;;;;;;;-140.66;100.00;55571.53;5135691;27;20023;-70
2023/08/19 12:20:52;;;;;;;12.55;4.90;;;;;;;-140.66;100.00;55571.53;5136793;27;20019;-71
2023/08/19 12:24:37;;;;;;;11.27;5.57;;;;;;;-140.66;100.00;55571.53;5137259;27;20429;-71
2023/08/19 12:28:22;;;;;;;11.57;5.20;;;;;;;-140.66;100.00;55571.53;5137704;27;20107;-70
2023/08/19 12:32:07;;;;;;;6.38;5.00;;;;;;;-140.66;100.00;55571.53;5136674;27;20027;-71
2023/08/19 12:35:51;;;;;;;10.07;5.20;;;;;;;-140.66;100.00;55571.53;5138371;27;20428;-71
2023/08/19 12:39:35;;;;;;;10.93;5.45;;;;;;;-140.66;100.00;55571.53;5155408;27;20031;-70
2023/08/19 12:43:19;;;;;;;9.38;4.93;;;;;;;-140.66;100.00;55571.53;5137834;27;20023;-71
2023/08/19 12:47:04;;;;;;;8.35;5.32;;;;;;;-140.66;100.00;55571.53;5137003;27;20019;-71
2023/08/19 12:50:48;;;;;;;7.20;5.10;;;;;;;-140.66;100.00;55571.53;5137336;27;20113;-71
2023/08/19 12:54:32;;;;;;;7.85;5.40;;;;;;;-140.66;100.00;55571.53;5137113;27;20023;-71
2023/08/19 12:58:16;;;;;;;7.80;5.38;;;;;;;-140.66;100.00;55571.53;5147808;27;20046;-72
2023/08/19 13:02:02;;;;;;;15.43;5.47;;;;;;;-140.66;100.00;55571.53;5136326;27;20019;-71
2023/08/19 13:05:46;;;;;;;10.68;5.28;;;;;;;-140.66;100.00;55571.53;5135977;27;20055;-71
2023/08/19 13:09:31;;;;;;;9.98;5.57;;;;;;;-140.66;100.00;55571.53;5135093;27;20027;-71
2023/08/19 13:13:15;;;;;;;8.80;4.57;;;;;;;-140.66;100.00;55571.53;5137319;27;20061;-70
2023/08/19 13:16:59;;;;;;;11.40;5.30;;;;;;;-140.66;100.00;55571.53;5136688;27;20027;-71
2023/08/19 13:20:43;;;;;;;11.45;5.07;;;;;;;-140.66;100.00;55571.53;5135778;27;20051;-72
2023/08/19 13:24:27;;;;;;;6.68;5.38;;;;;;;-140.66;100.00;55571.53;5135600;27;20065;-71
2023/08/19 13:28:12;;;;;;;11.88;5.53;;;;;;;-140.66;100.00;55571.53;5136454;27;20038;-71
2023/08/19 13:31:56;;;;;;;12.60;5.03;;;;;;;-140.66;100.00;55571.53;5137671;27;20031;-72
2023/08/19 13:35:40;;;;;;;13.45;5.00;;;;;;;-140.66;100.00;55571.53;5134938;27;20030;-72
2023/08/19 13:39:25;;;;;;;6.68;4.80;;;;;;;-140.66;100.00;55571.53;5148927;27;20003;-71
2023/08/19 13:43:09;;;;;;;6.72;5.10;;;;;;;-140.66;100.00;55571.53;5155652;27;20030;-70
2023/08/19 13:46:54;;;;;;;11.20;4.70;;;;;;;-140.66;100.00;55571.53;5151903;27;20020;-72
2023/08/19 13:50:39;;;;;;;10.02;5.20;;;;;;;-140.66;100.00;55571.53;5143393;27;20046;-71
2023/08/19 13:54:24;;;;;;;7.72;5.13;;;;;;;-140.66;100.00;55571.53;5144568;27;20102;-72
2023/08/19 13:58:08;;;;;;;7.22;5.43;;;;;;;-140.66;100.00;55571.53;5149191;27;20023;-71
2023/08/19 14:01:53;;;;;;;11.38;5.65;;;;;;;-140.66;100.00;55571.53;5148746;27;20038;-71
2023/08/19 14:05:37;;;;;;;8.50;5.05;;;;;;;-140.66;100.00;55571.53;5147302;27;20026;-71
2023/08/19 14:09:21;;;;;;;9.68;5.68;;;;;;;-140.66;100.00;55571.53;5140706;27;20023;-71
2023/08/19 14:13:06;;;;;;;15.30;5.78;;;;;;;-140.66;100.00;55571.53;5139132;27;20027;-71
2023/08/19 14:16:53;;;;;;;9.75;5.57;;;;;;;-140.66;100.00;55571.53;5137467;27;20497;-70
2023/08/19 14:20:38;;;;;;;13.50;5.50;;;;;;;-140.66;100.00;55571.53;5138781;28;20035;-70
2023/08/19 14:24:22;;;;;;;12.50;5.75;;;;;;;-140.66;100.00;55571.53;5143252;28;20048;-71
2023/08/19 14:28:06;;;;;;;10.38;5.93;;;;;;;-140.66;100.00;55571.53;5145859;28;20027;-71
2023/08/19 14:31:50;;;;;;;9.80;6.13;;;;;;;-140.66;100.00;55571.53;5146283;28;20106;-71
2023/08/19 14:35:34;;;;;;;18.60;11.13;;;;;;;-140.66;100.00;55571.53;5142109;28;20042;-70
2023/08/19 14:39:18;;;;;;;19.92;6.70;;;;;;;-140.66;100.00;55571.53;5143332;28;20027;-70
2023/08/19 14:43:03;;;;;;;10.25;6.20;;;;;;;-140.66;100.00;55571.53;5142303;28;20027;-71
2023/08/19 14:46:47;;;;;;;8.13;6.10;;;;;;;-140.66;100.00;55571.53;5141968;28;20051;-73
2023/08/19 14:50:31;;;;;;;14.10;6.65;;;;;;;-140.66;100.00;55571.53;5141144;28;20063;-71
2023/08/19 14:54:16;;;;;;;8.90;6.57;;;;;;;-140.66;100.00;55571.53;5135418;28;20035;-70
2023/08/19 14:58:00;;;;;;;11.35;6.35;;;;;;;-140.66;100.00;55571.53;5137286;28;20024;-70
2023/08/19 15:01:45;;;;;;;7.22;6.40;;;;;;;-140.66;100.00;55571.53;5138658;28;20039;-71
2023/08/19 15:05:30;;;;;;;9.98;6.53;;;;;;;-140.66;100.00;55571.53;5138140;28;20027;-72
2023/08/19 15:09:14;;;;;;;8.88;6.30;;;;;;;-140.66;100.00;55571.53;5135849;28;20066;-71
2023/08/19 15:12:58;;;;;;;7.53;6.38;;;;;;;-140.66;100.00;55571.53;5135724;28;20023;-72
2023/08/19 15:16:43;;;;;;;11.00;6.03;;;;;;;-140.66;100.00;55571.53;5137419;28;20024;-71
2023/08/19 15:20:27;;;;;;;10.05;6.10;;;;;;;-140.66;100.00;55571.53;5137403;28;20023;-71
2023/08/19 15:24:12;;;;;;;8.88;6.13;;;;;;;-140.66;100.00;55571.53;5134467;28;20042;-70
2023/08/19 15:27:56;;;;;;;13.88;6.18;;;;;;;-140.66;100.00;55571.53;5141303;27;20035;-70
2023/08/19 15:31:40;;;;;;;11.07;6.38;;;;;;;-140.66;100.00;55571.53;5143107;27;20033;-70
2023/08/19 15:35:26;;;;;;;11.50;6.30;;;;;;;-140.66;100.00;55571.53;5137352;27;20099;-70
2023/08/19 15:39:10;;;;;;;12.45;6.50;;;;;;;-140.66;100.00;55571.53;5137443;27;20027;-71
2023/08/19 15:42:54;;;;;;;7.47;5.75;;;;;;;-140.66;100.00;55571.53;5142310;27;20019;-71
2023/08/19 15:46:38;;;;;;;7.03;5.82;;;;;;;-140.66;100.00;55571.53;5142827;27;20027;-71
2023/08/19 15:50:23;;;;;;;13.32;6.25;;;;;;;-140.66;100.00;55571.53;5149195;27;20046;-70
2023/08/19 15:54:07;;;;;;;11.15;5.90;;;;;;;-140.66;100.00;55571.53;5144156;27;20090;-70
2023/08/19 15:57:53;;;;;;;12.52;5.97;;;;;;;-140.66;100.00;55571.53;5146645;27;20051;-71
2023/08/19 16:01:37;;;;;;;11.02;5.68;;;;;;;-140.66;100.00;55571.53;5143045;27;20035;-69
2023/08/19 16:05:21;;;;;;;13.00;5.57;;;;;;;-140.66;100.00;55571.53;5144920;27;20441;-70
2023/08/19 16:09:05;;;;;;;8.35;6.10;;;;;;;-140.66;100.00;55571.53;5144704;27;20054;-70
2023/08/19 16:12:50;;;;;;;6.97;5.10;;;;;;;-140.66;100.00;55571.53;5145440;27;20050;-71
2023/08/19 16:16:35;;;;;;;10.48;5.90;;;;;;;-140.66;100.00;55571.53;5146788;27;20072;-70
2023/08/19 16:20:19;;;;;;;7.57;5.60;;;;;;;-140.66;100.00;55571.53;5146684;27;20027;-70
2023/08/19 16:24:04;;;;;;;8.07;5.70;;;;;;;-140.66;100.00;55571.53;5148552;27;20027;-70
2023/08/19 16:27:48;;;;;;;8.77;5.78;;;;;;;-140.66;100.00;55571.53;5148979;27;20050;-70
2023/08/19 16:31:36;;;;;;;7.70;5.50;;;;;;;-140.66;100.00;55571.53;5147667;27;20019;-70
2023/08/19 16:35:20;;;;;;;7.22;5.57;;;;;;;-140.66;100.00;55571.53;5144600;27;20019;-71
2023/08/19 16:39:04;;;;;;;7.07;5.90;;;;;;;-140.66;100.00;55571.53;5145990;27;20104;-70
2023/08/19 16:42:49;;;;;;;9.43;5.80;;;;;;;-140.66;100.00;55571.53;5140560;27;20027;-72
2023/08/19 16:46:33;;;;;;;7.72;5.60;;;;;;;-140.66;100.00;55571.53;5144113;27;20027;-70
2023/08/19 16:50:17;;;;;;;8.35;5.93;;;;;;;-140.66;100.00;55571.53;5141437;27;20496;-71
2023/08/19 16:54:02;;;;;;;8.93;5.88;;;;;;;-140.66;100.00;55571.53;5142693;27;20092;-70
2023/08/19 16:57:46;;;;;;;7.85;5.47;;;;;;;-140.66;100.00;55571.53;5143445;27;20460;-70
2023/08/19 17:01:31;;;;;;;7.70;5.68;;;;;;;-140.66;100.00;55571.53;5139658;27;20422;-72